createdAt,value
2023-01-19T00:02:41.779Z,4.30
2023-01-19T00:07:00.903Z,4.70
2023-01-19T00:11:02.227Z,3.70
2023-01-19T00:14:50.376Z,5.00
2023-01-19T00:18:35.080Z,3.40
2023-01-19T00:23:16.850Z,4.80
2023-01-19T00:26:39.501Z,4.60
2023-01-19T00:30:20.735Z,4.40
2023-01-19T00:34:08.963Z,4.30
2023-01-19T00:38:01.003Z,3.10
2023-01-19T00:42:10.401Z,4.50
2023-01-19T00:50:38.622Z,4.00
2023-01-19T00:54:27.580Z,4.00
2023-01-19T00:58:36.834Z,4.30
2023-01-19T01:03:12.311Z,3.70
2023-01-19T01:06:37.200Z,5.00
2023-01-19T01:10:19.080Z,3.30
2023-01-19T01:14:08.577Z,4.10
2023-01-19T01:18:17.908Z,3.90
2023-01-19T01:22:18.398Z,3.60
2023-01-19T01:26:07.977Z,4.00
2023-01-19T01:29:55.908Z,3.50
2023-01-19T01:33:40.821Z,4.20
2023-01-19T01:37:39.640Z,5.20
2023-01-19T01:41:30.955Z,6.30
2023-01-19T01:45:23.995Z,5.10
2023-01-19T01:49:33.544Z,5.00
2023-01-19T01:54:20.493Z,5.50
2023-01-19T01:57:43.281Z,4.10
2023-01-19T02:01:30.246Z,9.20
2023-01-19T02:05:21.799Z,7.00
2023-01-19T02:09:23.576Z,5.30
2023-01-19T02:13:45.269Z,5.60
2023-01-19T02:17:55.989Z,4.90
2023-01-19T02:23:03.558Z,4.80
2023-01-19T02:26:34.044Z,5.10
2023-01-19T02:32:59.758Z,7.30
2023-01-19T02:35:09.952Z,5.90
2023-01-19T02:39:12.765Z,6.10
2023-01-19T02:43:14.726Z,5.60
2023-01-19T02:47:04.626Z,5.20
2023-01-19T02:51:46.343Z,5.40
2023-01-19T02:56:17.942Z,5.50
2023-01-19T02:59:38.893Z,5.30
2023-01-19T03:03:47.566Z,5.30
2023-01-19T03:08:11.005Z,5.30
2023-01-19T03:12:01.284Z,5.40
2023-01-19T03:16:09.119Z,7.50
2023-01-19T03:20:13.491Z,6.70
2023-01-19T03:24:21.745Z,5.00
2023-01-19T03:28:27.411Z,5.60
2023-01-19T03:33:04.972Z,5.90
2023-01-19T03:37:17.293Z,5.90
2023-01-19T03:41:29.703Z,5.00
2023-01-19T03:45:22.560Z,4.20
2023-01-19T03:49:30.447Z,6.80
2023-01-19T03:58:07.087Z,4.70
2023-01-19T04:03:02.946Z,6.30
2023-01-19T04:08:20.689Z,5.00
2023-01-19T04:11:14.216Z,5.30
2023-01-19T04:15:07.058Z,4.00
2023-01-19T04:20:39.582Z,6.00
2023-01-19T04:23:46.871Z,4.20
2023-01-19T04:28:21.549Z,5.90
2023-01-19T04:31:46.849Z,5.70
2023-01-19T04:41:16.167Z,5.40
2023-01-19T04:44:40.285Z,4.00
2023-01-19T04:52:46.538Z,6.70
2023-01-19T04:56:58.813Z,6.10
2023-01-19T05:01:15.808Z,5.20
2023-01-19T05:05:25.789Z,4.10
2023-01-19T05:09:34.828Z,5.10
2023-01-19T05:13:44.200Z,4.20
2023-01-19T05:17:27.072Z,3.70
2023-01-19T05:29:38.468Z,4.20
2023-01-19T05:31:11.018Z,5.80
2023-01-19T05:35:35.397Z,5.30
2023-01-19T05:39:41.161Z,5.90
2023-01-19T05:44:07.879Z,6.90
2023-01-19T05:48:18.284Z,4.20
2023-01-19T05:52:07.820Z,6.10
2023-01-19T05:56:03.893Z,4.70
2023-01-19T06:00:30.258Z,4.70
2023-01-19T06:04:16.701Z,4.70
2023-01-19T06:08:04.595Z,3.50
2023-01-19T06:11:53.070Z,6.00
2023-01-19T06:15:49.776Z,4.00
2023-01-19T06:20:03.711Z,4.40
2023-01-19T06:23:51.662Z,3.70
2023-01-19T06:27:39.504Z,9.40
2023-01-19T06:31:32.942Z,6.70
2023-01-19T06:35:24.906Z,9.10
2023-01-19T06:40:04.332Z,11.00
2023-01-19T06:43:27.975Z,6.00
2023-01-19T06:47:25.256Z,5.90
2023-01-19T06:51:34.807Z,10.50
2023-01-19T06:55:30.826Z,9.10
2023-01-19T06:59:38.783Z,6.50
2023-01-19T07:03:37.815Z,6.50
2023-01-19T07:07:59.454Z,7.50
2023-01-19T07:12:20.815Z,9.90
2023-01-19T07:16:14.267Z,7.30
2023-01-19T07:21:41.135Z,8.10
2023-01-19T07:24:32.352Z,5.90
2023-01-19T07:28:35.747Z,5.20
2023-01-19T07:32:51.193Z,7.70
2023-01-19T07:36:43.767Z,4.90
2023-01-19T07:40:38.572Z,6.40
2023-01-19T07:45:27.170Z,6.10
2023-01-19T07:48:54.998Z,6.50
2023-01-19T07:53:27.163Z,6.80
2023-01-19T07:57:25.108Z,9.00
2023-01-19T08:01:13.596Z,5.60
2023-01-19T08:05:29.637Z,4.40
2023-01-19T08:09:28.441Z,4.00
2023-01-19T08:13:19.025Z,15.30
2023-01-19T08:17:30.323Z,16.20
2023-01-19T08:21:32.813Z,9.40
2023-01-19T08:25:41.713Z,16.40
2023-01-19T08:29:32.863Z,10.40
2023-01-19T08:33:27.948Z,10.60
2023-01-19T08:37:31.821Z,8.70
2023-01-19T08:41:40.967Z,33.40
2023-01-19T08:45:33.779Z,15.70
2023-01-19T08:49:41.701Z,6.70
2023-01-19T08:53:54.805Z,7.90
2023-01-19T08:57:47.875Z,8.00
2023-01-19T09:05:10.573Z,5.20
2023-01-19T09:09:24.302Z,6.20
2023-01-19T09:13:12.207Z,6.50
2023-01-19T09:17:02.228Z,5.90
2023-01-19T09:20:54.581Z,8.40
2023-01-19T09:25:13.992Z,6.90
2023-01-19T09:29:12.582Z,9.10
2023-01-19T09:33:13.377Z,10.20
2023-01-19T09:37:02.714Z,6.90
2023-01-19T09:40:55.500Z,8.90
2023-01-19T09:44:49.787Z,7.40
2023-01-19T09:48:40.541Z,12.30
2023-01-19T09:52:30.673Z,10.60
2023-01-19T09:56:43.841Z,8.30
2023-01-19T10:00:38.066Z,7.00
2023-01-19T10:04:46.433Z,6.80
2023-01-19T10:08:56.890Z,7.00
2023-01-19T10:12:57.029Z,12.20
2023-01-19T10:16:50.559Z,9.80
2023-01-19T10:20:39.767Z,9.30
2023-01-19T10:25:03.338Z,9.00
2023-01-19T10:30:38.707Z,10.70
2023-01-19T10:33:24.494Z,6.70
2023-01-19T10:37:13.059Z,8.20
2023-01-19T10:40:56.967Z,9.40
2023-01-19T10:46:48.673Z,15.60
2023-01-19T10:49:37.826Z,9.60
2023-01-19T10:53:38.970Z,14.40
2023-01-19T10:57:41.831Z,10.70
2023-01-19T11:01:35.375Z,11.30
2023-01-19T11:10:27.414Z,13.80
2023-01-19T11:14:19.936Z,15.20
2023-01-19T11:18:28.413Z,20.10
2023-01-19T11:22:18.720Z,10.40
2023-01-19T11:30:35.759Z,21.80
2023-01-19T11:38:29.096Z,10.60
2023-01-19T11:42:32.445Z,11.90
2023-01-19T11:46:29.034Z,15.10
2023-01-19T11:50:32.071Z,13.30
2023-01-19T11:54:36.087Z,10.50
2023-01-19T11:58:28.105Z,10.40
2023-01-19T12:02:22.716Z,5.00
2023-01-19T12:06:23.911Z,2.90
2023-01-19T12:10:17.933Z,5.00
2023-01-19T12:14:26.487Z,3.50
2023-01-19T12:19:07.313Z,10.60
2023-01-19T12:22:38.354Z,3.20
2023-01-19T12:27:13.394Z,2.50
2023-01-19T12:35:32.772Z,2.40
2023-01-19T12:40:03.820Z,1.90
2023-01-19T12:43:59.133Z,6.90
2023-01-19T12:48:15.686Z,0.70
2023-01-19T12:52:04.857Z,2.20
2023-01-19T12:55:53.492Z,2.10
2023-01-19T12:59:44.569Z,1.50
2023-01-19T13:07:49.753Z,1.20
2023-01-19T13:11:42.033Z,1.50
2023-01-19T13:15:39.759Z,1.70
2023-01-19T13:19:46.263Z,6.70
2023-01-19T13:24:38.139Z,1.80
2023-01-19T13:28:28.377Z,4.60
2023-01-19T13:32:04.291Z,2.90
2023-01-19T13:37:10.607Z,3.20
2023-01-19T13:40:33.860Z,6.10
2023-01-19T13:44:25.231Z,7.50
2023-01-19T13:49:00.047Z,3.70
2023-01-19T13:52:52.582Z,9.80
2023-01-19T13:56:49.347Z,5.50
2023-01-19T14:00:50.039Z,8.80
2023-01-19T14:04:40.163Z,17.30
2023-01-19T14:08:51.111Z,10.00
2023-01-19T14:13:16.391Z,5.60
2023-01-19T14:17:50.100Z,11.20
2023-01-19T14:21:57.670Z,25.90
2023-01-19T14:25:47.811Z,12.00
2023-01-19T14:29:44.695Z,15.40
2023-01-19T14:33:40.074Z,21.10
2023-01-19T14:37:26.967Z,15.10
2023-01-19T14:41:45.919Z,15.40
2023-01-19T14:45:39.290Z,18.00
2023-01-19T14:50:04.734Z,21.20
2023-01-19T14:54:08.957Z,15.40
2023-01-19T14:58:33.770Z,10.60
2023-01-19T15:06:54.850Z,13.00
2023-01-19T15:10:53.007Z,11.00
2023-01-19T15:15:10.100Z,11.30
2023-01-19T15:18:55.615Z,11.30
2023-01-19T15:22:48.852Z,13.20
2023-01-19T15:26:42.082Z,10.70
2023-01-19T15:34:23.119Z,15.50
2023-01-19T15:38:22.631Z,9.30
2023-01-19T15:42:26.519Z,14.60
2023-01-19T15:47:33.213Z,14.40
2023-01-19T15:50:52.590Z,9.80
2023-01-19T15:54:42.575Z,10.80
2023-01-19T15:58:41.346Z,6.50
2023-01-19T16:03:04.577Z,9.70
2023-01-19T16:07:07.053Z,9.60
2023-01-19T16:11:10.752Z,6.50
2023-01-19T16:15:11.208Z,8.60
2023-01-19T16:23:43.195Z,7.40
2023-01-19T16:27:20.632Z,7.50
2023-01-19T16:31:08.981Z,5.40
2023-01-19T16:34:54.653Z,5.50
2023-01-19T16:38:53.236Z,4.60
2023-01-19T16:42:51.226Z,5.10
2023-01-19T16:46:57.640Z,3.80
2023-01-19T16:50:59.659Z,5.60
2023-01-19T16:55:01.155Z,5.90
2023-01-19T16:59:54.375Z,4.40
2023-01-19T17:03:23.022Z,6.90
2023-01-19T17:07:25.033Z,5.90
2023-01-19T17:11:43.579Z,6.20
2023-01-19T17:15:34.548Z,4.40
2023-01-19T17:19:41.553Z,7.30
2023-01-19T17:23:36.122Z,5.50
2023-01-19T17:27:34.524Z,3.90
2023-01-19T17:31:34.079Z,3.30
2023-01-19T17:35:20.019Z,3.30
2023-01-19T17:39:18.567Z,3.50
2023-01-19T17:43:23.789Z,3.00
2023-01-19T17:47:40.315Z,6.00
2023-01-19T17:51:36.617Z,6.10
2023-01-19T17:55:48.596Z,7.80
2023-01-19T17:59:44.933Z,7.20
2023-01-19T18:04:10.615Z,4.90
2023-01-19T18:12:30.971Z,6.00
2023-01-19T18:16:32.006Z,4.50
2023-01-19T18:20:31.653Z,3.00
2023-01-19T18:28:19.643Z,5.90
2023-01-19T18:32:28.758Z,1.70
2023-01-19T18:36:34.540Z,2.00
2023-01-19T18:40:18.541Z,3.70
2023-01-19T18:41:35.608Z,2.20
2023-01-19T18:44:12.666Z,3.20
2023-01-19T18:52:21.081Z,1.90
2023-01-19T18:55:47.018Z,3.30
2023-01-19T18:59:49.028Z,4.10
2023-01-19T19:09:12.636Z,4.90
2023-01-19T19:11:30.352Z,4.40
2023-01-19T19:15:15.565Z,6.10
2023-01-19T19:22:25.645Z,5.90
2023-01-19T19:23:21.683Z,5.40
2023-01-19T19:26:34.332Z,4.60
2023-01-19T19:30:31.268Z,7.10
2023-01-19T19:34:25.647Z,5.50
2023-01-19T19:38:22.523Z,4.80
2023-01-19T19:42:11.079Z,7.10
2023-01-19T19:45:51.848Z,6.40
2023-01-19T19:49:41.032Z,9.70
2023-01-19T19:53:12.425Z,12.30
2023-01-19T19:57:01.553Z,4.20
2023-01-19T20:05:25.918Z,4.80
2023-01-19T20:09:20.931Z,6.60
2023-01-19T20:13:01.581Z,7.10
2023-01-19T20:21:00.323Z,6.60
2023-01-19T20:24:04.602Z,5.90
2023-01-19T20:27:44.865Z,4.50
2023-01-19T20:31:54.931Z,4.50
2023-01-19T20:39:38.166Z,2.70
2023-01-19T20:43:08.527Z,3.20
2023-01-19T20:51:12.081Z,2.80
2023-01-19T20:54:56.505Z,4.50
2023-01-19T20:58:57.109Z,3.30
2023-01-19T21:02:53.290Z,6.70
2023-01-19T21:06:45.838Z,4.70
2023-01-19T21:10:37.822Z,5.10
2023-01-19T21:15:31.613Z,3.30
2023-01-19T21:23:08.789Z,2.40
2023-01-19T21:27:39.057Z,3.70
2023-01-19T21:31:03.010Z,1.90
2023-01-19T21:34:59.025Z,4.20
2023-01-19T21:38:55.755Z,2.80
2023-01-19T21:43:12.083Z,3.90
2023-01-19T21:47:04.528Z,5.40
2023-01-19T21:50:57.020Z,3.80
2023-01-19T21:55:03.275Z,3.50
2023-01-19T21:58:59.593Z,3.00
2023-01-19T22:03:04.721Z,2.00
2023-01-19T22:07:14.596Z,2.00
2023-01-19T22:11:22.449Z,3.60
2023-01-19T22:15:23.256Z,13.20
2023-01-19T22:19:24.587Z,4.60
2023-01-19T22:23:55.026Z,5.40
2023-01-19T22:27:51.141Z,6.70
2023-01-19T22:32:44.792Z,4.20
2023-01-19T22:36:09.834Z,4.50
2023-01-19T22:40:06.799Z,5.90
2023-01-19T22:44:11.926Z,3.30
2023-01-19T22:48:01.596Z,2.80
2023-01-19T22:52:06.697Z,5.00
2023-01-19T22:56:23.250Z,5.40
2023-01-19T23:01:39.650Z,3.40
2023-01-19T23:04:17.460Z,7.00
2023-01-19T23:08:17.434Z,3.60
2023-01-19T23:12:18.478Z,5.80
2023-01-19T23:16:09.764Z,4.50
2023-01-19T23:19:59.879Z,5.90
2023-01-19T23:32:16.531Z,3.30
2023-01-19T23:36:07.723Z,2.70
2023-01-19T23:40:17.659Z,3.20
2023-01-19T23:44:09.680Z,3.10
2023-01-19T23:49:50.311Z,2.70
2023-01-19T23:56:22.618Z,2.80
